sensor_id;sensor_type;location;lat;lon;timestamp;pressure;altitude;pressure_sealevel;temperature;humidity
57900;BME280;60605;53.716;19.940;2023-08-30T00:04:50;99168.29;;;18.06;100.00
57900;BME280;60605;53.716;19.940;2023-08-30T00:09:52;99171.52;;;18.11;100.00
57900;BME280;60605;53.716;19.940;2023-08-30T00:14:54;99159.48;;;18.17;100.00
57900;BME280;60605;53.716;19.940;2023-08-30T00:19:56;99143.68;;;18.22;100.00
57900;BME280;60605;53.716;19.940;2023-08-30T00:24:58;99134.02;;;18.27;100.00
57900;BME280;60605;53.716;19.940;2023-08-30T00:30:00;99138.39;;;18.32;100.00
57900;BME280;60605;53.716;19.940;2023-08-30T00:35:03;99135.54;;;18.35;100.00
57900;BME280;60605;53.716;19.940;2023-08-30T00:40:06;99122.55;;;18.37;100.00
57900;BME280;60605;53.716;19.940;2023-08-30T00:45:08;99114.77;;;18.40;100.00
57900;BME280;60605;53.716;19.940;2023-08-30T00:50:10;99116.27;;;18.42;100.00
57900;BME280;60605;53.716;19.940;2023-08-30T00:55:12;99117.43;;;18.42;100.00
57900;BME280;60605;53.716;19.940;2023-08-30T01:00:15;99120.95;;;18.42;100.00
57900;BME280;60605;53.716;19.940;2023-08-30T01:05:18;99118.85;;;18.43;100.00
57900;BME280;60605;53.716;19.940;2023-08-30T01:10:31;99117.80;;;18.43;100.00
57900;BME280;60605;53.716;19.940;2023-08-30T01:15:38;99125.87;;;18.45;100.00
57900;BME280;60605;53.716;19.940;2023-08-30T01:20:42;99137.69;;;18.47;100.00
57900;BME280;60605;53.716;19.940;2023-08-30T01:25:48;99147.38;;;18.50;100.00
57900;BME280;60605;53.716;19.940;2023-08-30T01:30:54;99155.99;;;18.54;100.00
57900;BME280;60605;53.716;19.940;2023-08-30T01:35:59;99151.54;;;18.57;100.00
57900;BME280;60605;53.716;19.940;2023-08-30T01:41:02;99152.33;;;18.60;100.00
57900;BME280;60605;53.716;19.940;2023-08-30T01:46:06;99153.63;;;18.62;100.00
57900;BME280;60605;53.716;19.940;2023-08-30T01:51:09;99161.23;;;18.62;100.00
57900;BME280;60605;53.716;19.940;2023-08-30T01:56:11;99163.70;;;18.62;100.00
57900;BME280;60605;53.716;19.940;2023-08-30T02:01:13;99164.69;;;18.56;100.00
57900;BME280;60605;53.716;19.940;2023-08-30T02:06:24;99162.94;;;18.48;100.00
57900;BME280;60605;53.716;19.940;2023-08-30T02:11:32;99163.18;;;18.38;100.00
57900;BME280;60605;53.716;19.940;2023-08-30T02:16:37;99160.33;;;18.29;100.00
57900;BME280;60605;53.716;19.940;2023-08-30T02:21:40;99158.33;;;18.22;100.00
57900;BME280;60605;53.716;19.940;2023-08-30T02:26:42;99166.00;;;18.15;100.00
57900;BME280;60605;53.716;19.940;2023-08-30T02:31:44;99168.25;;;18.09;100.00
57900;BME280;60605;53.716;19.940;2023-08-30T02:36:46;99161.30;;;18.05;100.00
57900;BME280;60605;53.716;19.940;2023-08-30T02:41:48;99154.20;;;18.01;100.00
57900;BME280;60605;53.716;19.940;2023-08-30T02:46:50;99152.09;;;17.98;100.00
57900;BME280;60605;53.716;19.940;2023-08-30T02:51:52;99153.49;;;17.95;100.00
57900;BME280;60605;53.716;19.940;2023-08-30T02:56:54;99156.48;;;17.94;100.00
57900;BME280;60605;53.716;19.940;2023-08-30T03:01:56;99152.79;;;17.92;100.00
57900;BME280;60605;53.716;19.940;2023-08-30T03:06:57;99152.59;;;17.91;100.00
57900;BME280;60605;53.716;19.940;2023-08-30T03:11:59;99161.81;;;17.89;100.00
57900;BME280;60605;53.716;19.940;2023-08-30T03:17:02;99168.32;;;17.87;100.00
57900;BME280;60605;53.716;19.940;2023-08-30T03:22:04;99170.77;;;17.85;100.00
57900;BME280;60605;53.716;19.940;2023-08-30T03:27:06;99173.31;;;17.84;100.00
57900;BME280;60605;53.716;19.940;2023-08-30T03:32:08;99180.26;;;17.82;100.00
57900;BME280;60605;53.716;19.940;2023-08-30T03:37:10;99170.42;;;17.80;100.00
57900;BME280;60605;53.716;19.940;2023-08-30T03:42:12;99170.56;;;17.79;100.00
57900;BME280;60605;53.716;19.940;2023-08-30T03:47:14;99164.91;;;17.78;100.00
57900;BME280;60605;53.716;19.940;2023-08-30T03:52:16;99167.61;;;17.76;100.00
57900;BME280;60605;53.716;19.940;2023-08-30T03:57:18;99155.04;;;17.73;100.00
57900;BME280;60605;53.716;19.940;2023-08-30T04:02:19;99139.29;;;17.72;100.00
57900;BME280;60605;53.716;19.940;2023-08-30T04:07:21;99132.16;;;17.71;100.00
57900;BME280;60605;53.716;19.940;2023-08-30T04:12:23;99133.50;;;17.71;100.00
57900;BME280;60605;53.716;19.940;2023-08-30T04:17:25;99131.38;;;17.72;100.00
57900;BME280;60605;53.716;19.940;2023-08-30T04:22:27;99131.12;;;17.72;100.00
57900;BME280;60605;53.716;19.940;2023-08-30T04:27:29;99136.45;;;17.73;100.00
57900;BME280;60605;53.716;19.940;2023-08-30T04:32:31;99143.88;;;17.75;100.00
57900;BME280;60605;53.716;19.940;2023-08-30T04:37:34;99149.77;;;17.78;100.00
57900;BME280;60605;53.716;19.940;2023-08-30T04:42:36;99153.77;;;17.83;100.00
57900;BME280;60605;53.716;19.940;2023-08-30T04:47:39;99156.36;;;17.90;100.00
57900;BME280;60605;53.716;19.940;2023-08-30T04:52:44;99163.95;;;17.97;100.00
57900;BME280;60605;53.716;19.940;2023-08-30T04:57:46;99166.49;;;18.00;100.00
57900;BME280;60605;53.716;19.940;2023-08-30T05:02:49;99172.02;;;18.02;100.00
57900;BME280;60605;53.716;19.940;2023-08-30T05:07:51;99178.89;;;18.03;100.00
57900;BME280;60605;53.716;19.940;2023-08-30T05:12:53;99194.34;;;18.04;100.00
57900;BME280;60605;53.716;19.940;2023-08-30T05:17:55;99199.99;;;18.02;100.00
57900;BME280;60605;53.716;19.940;2023-08-30T05:22:57;99206.21;;;18.02;100.00
57900;BME280;60605;53.716;19.940;2023-08-30T05:27:59;99203.61;;;18.03;100.00
57900;BME280;60605;53.716;19.940;2023-08-30T05:33:01;99213.11;;;18.05;100.00
57900;BME280;60605;53.716;19.940;2023-08-30T05:38:04;99207.09;;;18.05;100.00
57900;BME280;60605;53.716;19.940;2023-08-30T05:43:06;99195.55;;;18.11;100.00
57900;BME280;60605;53.716;19.940;2023-08-30T05:48:08;99190.05;;;18.28;100.00
57900;BME280;60605;53.716;19.940;2023-08-30T05:53:10;99185.31;;;18.67;100.00
57900;BME280;60605;53.716;19.940;2023-08-30T05:58:12;99185.73;;;19.15;100.00
57900;BME280;60605;53.716;19.940;2023-08-30T06:03:16;99190.55;;;19.65;100.00
57900;BME280;60605;53.716;19.940;2023-08-30T06:08:19;99194.66;;;20.07;100.00
57900;BME280;60605;53.716;19.940;2023-08-30T06:13:22;99194.59;;;20.18;100.00
57900;BME280;60605;53.716;19.940;2023-08-30T06:18:24;99204.16;;;20.04;100.00
57900;BME280;60605;53.716;19.940;2023-08-30T06:23:26;99208.20;;;19.85;100.00
57900;BME280;60605;53.716;19.940;2023-08-30T06:28:28;99210.73;;;19.68;100.00
57900;BME280;60605;53.716;19.940;2023-08-30T06:33:30;99213.64;;;19.53;100.00
57900;BME280;60605;53.716;19.940;2023-08-30T06:38:32;99220.16;;;19.42;100.00
57900;BME280;60605;53.716;19.940;2023-08-30T06:43:37;99228.41;;;19.33;100.00
57900;BME280;60605;53.716;19.940;2023-08-30T06:48:44;99235.19;;;19.32;100.00
57900;BME280;60605;53.716;19.940;2023-08-30T06:53:50;99231.85;;;19.42;100.00
57900;BME280;60605;53.716;19.940;2023-08-30T06:58:51;99229.36;;;19.56;100.00
57900;BME280;60605;53.716;19.940;2023-08-30T07:03:53;99225.52;;;19.70;100.00
57900;BME280;60605;53.716;19.940;2023-08-30T07:08:55;99228.69;;;19.84;100.00
57900;BME280;60605;53.716;19.940;2023-08-30T07:13:57;99222.56;;;20.00;100.00
57900;BME280;60605;53.716;19.940;2023-08-30T07:18:59;99215.52;;;20.27;100.00
57900;BME280;60605;53.716;19.940;2023-08-30T07:24:02;99213.82;;;20.55;100.00
57900;BME280;60605;53.716;19.940;2023-08-30T07:29:04;99222.10;;;20.70;100.00
57900;BME280;60605;53.716;19.940;2023-08-30T07:34:07;99231.98;;;20.76;100.00
57900;BME280;60605;53.716;19.940;2023-08-30T07:39:14;99238.94;;;20.67;100.00
57900;BME280;60605;53.716;19.940;2023-08-30T07:44:16;99240.55;;;20.50;100.00
57900;BME280;60605;53.716;19.940;2023-08-30T07:49:18;99235.77;;;20.32;100.00
57900;BME280;60605;53.716;19.940;2023-08-30T07:54:20;99237.20;;;20.23;100.00
57900;BME280;60605;53.716;19.940;2023-08-30T07:59:22;99235.69;;;20.26;100.00
57900;BME280;60605;53.716;19.940;2023-08-30T08:04:24;99230.81;;;20.45;100.00
57900;BME280;60605;53.716;19.940;2023-08-30T08:09:26;99236.73;;;20.68;100.00
57900;BME280;60605;53.716;19.940;2023-08-30T08:14:28;99250.25;;;20.80;100.00
57900;BME280;60605;53.716;19.940;2023-08-30T08:19:30;99252.75;;;20.80;100.00
57900;BME280;60605;53.716;19.940;2023-08-30T08:24:32;99257.91;;;20.76;100.00
57900;BME280;60605;53.716;19.940;2023-08-30T08:29:34;99266.00;;;20.72;100.00
57900;BME280;60605;53.716;19.940;2023-08-30T08:34:37;99266.03;;;20.69;100.00
57900;BME280;60605;53.716;19.940;2023-08-30T08:39:39;99266.92;;;20.64;100.00
57900;BME280;60605;53.716;19.940;2023-08-30T08:44:42;99273.02;;;20.56;100.00
57900;BME280;60605;53.716;19.940;2023-08-30T08:49:46;99276.98;;;20.54;100.00
57900;BME280;60605;53.716;19.940;2023-08-30T08:54:49;99278.79;;;20.62;100.00
57900;BME280;60605;53.716;19.940;2023-08-30T08:59:51;99283.48;;;20.73;100.00
57900;BME280;60605;53.716;19.940;2023-08-30T09:04:52;99287.67;;;20.73;100.00
57900;BME280;60605;53.716;19.940;2023-08-30T09:09:55;99289.21;;;20.76;100.00
57900;BME280;60605;53.716;19.940;2023-08-30T09:14:57;99290.95;;;20.73;100.00
57900;BME280;60605;53.716;19.940;2023-08-30T09:20:08;99287.81;;;20.61;100.00
57900;BME280;60605;53.716;19.940;2023-08-30T09:25:11;99289.52;;;20.49;100.00
57900;BME280;60605;53.716;19.940;2023-08-30T09:30:14;99292.73;;;20.39;100.00
57900;BME280;60605;53.716;19.940;2023-08-30T09:35:16;99290.52;;;20.32;100.00
57900;BME280;60605;53.716;19.940;2023-08-30T09:40:19;99294.14;;;20.24;100.00
57900;BME280;60605;53.716;19.940;2023-08-30T09:45:21;99289.05;;;20.12;100.00
57900;BME280;60605;53.716;19.940;2023-08-30T09:50:24;99283.74;;;20.02;100.00
57900;BME280;60605;53.716;19.940;2023-08-30T09:55:26;99287.17;;;19.93;100.00
57900;BME280;60605;53.716;19.940;2023-08-30T10:00:28;99287.69;;;19.78;100.00
57900;BME280;60605;53.716;19.940;2023-08-30T10:05:31;99289.21;;;19.65;100.00
57900;BME280;60605;53.716;19.940;2023-08-30T10:10:35;99295.30;;;19.56;100.00
57900;BME280;60605;53.716;19.940;2023-08-30T10:15:43;99293.25;;;19.46;100.00
57900;BME280;60605;53.716;19.940;2023-08-30T10:20:47;99290.86;;;19.35;100.00
57900;BME280;60605;53.716;19.940;2023-08-30T10:25:52;99293.39;;;19.28;100.00
57900;BME280;60605;53.716;19.940;2023-08-30T10:30:55;99291.06;;;19.26;100.00
57900;BME280;60605;53.716;19.940;2023-08-30T10:36:06;99287.55;;;19.27;100.00
57900;BME280;60605;53.716;19.940;2023-08-30T10:41:08;99282.84;;;19.30;100.00
57900;BME280;60605;53.716;19.940;2023-08-30T10:46:11;99277.16;;;19.31;100.00
57900;BME280;60605;53.716;19.940;2023-08-30T10:51:20;99272.86;;;19.34;100.00
57900;BME280;60605;53.716;19.940;2023-08-30T10:56:30;99269.20;;;19.38;100.00
57900;BME280;60605;53.716;19.940;2023-08-30T11:01:32;99268.91;;;19.44;100.00
57900;BME280;60605;53.716;19.940;2023-08-30T11:06:38;99261.10;;;19.51;100.00
57900;BME280;60605;53.716;19.940;2023-08-30T11:11:40;99257.80;;;19.65;100.00
57900;BME280;60605;53.716;19.940;2023-08-30T11:16:42;99253.44;;;19.85;100.00
57900;BME280;60605;53.716;19.940;2023-08-30T11:21:45;99249.36;;;20.15;100.00
57900;BME280;60605;53.716;19.940;2023-08-30T11:26:52;99250.22;;;20.46;100.00
57900;BME280;60605;53.716;19.940;2023-08-30T11:31:55;99254.81;;;20.69;100.00
57900;BME280;60605;53.716;19.940;2023-08-30T11:36:58;99256.58;;;20.78;100.00
57900;BME280;60605;53.716;19.940;2023-08-30T11:42:03;99253.13;;;20.80;100.00
57900;BME280;60605;53.716;19.940;2023-08-30T11:47:23;99253.55;;;20.84;100.00
57900;BME280;60605;53.716;19.940;2023-08-30T11:52:26;99255.02;;;20.95;100.00
57900;BME280;60605;53.716;19.940;2023-08-30T11:57:28;99251.65;;;21.04;100.00
57900;BME280;60605;53.716;19.940;2023-08-30T12:02:31;99245.73;;;21.05;100.00
57900;BME280;60605;53.716;19.940;2023-08-30T12:07:36;99246.54;;;20.94;100.00
57900;BME280;60605;53.716;19.940;2023-08-30T12:12:45;99250.17;;;20.79;100.00
57900;BME280;60605;53.716;19.940;2023-08-30T12:17:47;99246.89;;;20.67;100.00
57900;BME280;60605;53.716;19.940;2023-08-30T12:22:49;99246.67;;;20.57;100.00
57900;BME280;60605;53.716;19.940;2023-08-30T12:27:52;99246.02;;;20.49;100.00
57900;BME280;60605;53.716;19.940;2023-08-30T12:33:00;99238.48;;;20.42;100.00
57900;BME280;60605;53.716;19.940;2023-08-30T12:38:06;99233.79;;;20.39;100.00
57900;BME280;60605;53.716;19.940;2023-08-30T12:43:11;99227.02;;;20.38;100.00
57900;BME280;60605;53.716;19.940;2023-08-30T12:48:14;99223.85;;;20.37;100.00
57900;BME280;60605;53.716;19.940;2023-08-30T12:53:17;99220.50;;;20.42;100.00
57900;BME280;60605;53.716;19.940;2023-08-30T12:58:19;99215.74;;;20.48;100.00
57900;BME280;60605;53.716;19.940;2023-08-30T13:03:21;99213.13;;;20.56;100.00
57900;BME280;60605;53.716;19.940;2023-08-30T13:08:23;99214.67;;;20.65;100.00
57900;BME280;60605;53.716;19.940;2023-08-30T13:13:26;99218.42;;;20.79;100.00
57900;BME280;60605;53.716;19.940;2023-08-30T13:18:28;99217.20;;;21.00;100.00
57900;BME280;60605;53.716;19.940;2023-08-30T13:23:30;99220.69;;;21.18;100.00
57900;BME280;60605;53.716;19.940;2023-08-30T13:28:31;99224.02;;;21.24;100.00
57900;BME280;60605;53.716;19.940;2023-08-30T13:33:33;99219.46;;;21.27;100.00
57900;BME280;60605;53.716;19.940;2023-08-30T13:38:35;99216.29;;;21.25;100.00
57900;BME280;60605;53.716;19.940;2023-08-30T13:43:37;99224.90;;;21.16;100.00
57900;BME280;60605;53.716;19.940;2023-08-30T13:48:39;99227.63;;;20.98;100.00
57900;BME280;60605;53.716;19.940;2023-08-30T13:53:41;99220.20;;;20.76;100.00
57900;BME280;60605;53.716;19.940;2023-08-30T13:58:43;99217.17;;;20.52;100.00
57900;BME280;60605;53.716;19.940;2023-08-30T14:03:45;99217.49;;;20.33;100.00
57900;BME280;60605;53.716;19.940;2023-08-30T14:08:47;99208.81;;;20.26;100.00
57900;BME280;60605;53.716;19.940;2023-08-30T14:13:49;99209.88;;;20.31;100.00
57900;BME280;60605;53.716;19.940;2023-08-30T14:18:54;99212.73;;;20.39;100.00
57900;BME280;60605;53.716;19.940;2023-08-30T14:23:55;99212.61;;;20.41;100.00
57900;BME280;60605;53.716;19.940;2023-08-30T14:28:57;99204.10;;;20.41;100.00
57900;BME280;60605;53.716;19.940;2023-08-30T14:34:00;99206.90;;;20.45;100.00
57900;BME280;60605;53.716;19.940;2023-08-30T14:39:02;99206.30;;;20.47;100.00
57900;BME280;60605;53.716;19.940;2023-08-30T14:44:05;99202.91;;;20.46;100.00
57900;BME280;60605;53.716;19.940;2023-08-30T14:49:07;99210.59;;;20.47;100.00
57900;BME280;60605;53.716;19.940;2023-08-30T14:54:09;99214.30;;;20.49;100.00
57900;BME280;60605;53.716;19.940;2023-08-30T14:59:11;99201.32;;;20.51;100.00
57900;BME280;60605;53.716;19.940;2023-08-30T15:04:13;99196.18;;;20.45;100.00
57900;BME280;60605;53.716;19.940;2023-08-30T15:09:15;99190.13;;;20.36;100.00
57900;BME280;60605;53.716;19.940;2023-08-30T15:14:18;99188.16;;;20.35;100.00
57900;BME280;60605;53.716;19.940;2023-08-30T15:19:20;99190.88;;;20.41;100.00
57900;BME280;60605;53.716;19.940;2023-08-30T15:24:22;99196.63;;;20.40;100.00
57900;BME280;60605;53.716;19.940;2023-08-30T15:29:24;99199.32;;;20.28;100.00
57900;BME280;60605;53.716;19.940;2023-08-30T15:34:26;99203.71;;;20.13;100.00
57900;BME280;60605;53.716;19.940;2023-08-30T15:39:27;99201.64;;;19.94;100.00
57900;BME280;60605;53.716;19.940;2023-08-30T15:44:29;99201.61;;;19.78;100.00
57900;BME280;60605;53.716;19.940;2023-08-30T15:49:31;99199.09;;;19.67;100.00
57900;BME280;60605;53.716;19.940;2023-08-30T15:54:33;99197.15;;;19.64;100.00
57900;BME280;60605;53.716;19.940;2023-08-30T15:59:35;99203.77;;;19.65;100.00
57900;BME280;60605;53.716;19.940;2023-08-30T16:04:37;99210.95;;;19.68;100.00
57900;BME280;60605;53.716;19.940;2023-08-30T16:09:40;99218.39;;;19.72;100.00
57900;BME280;60605;53.716;19.940;2023-08-30T16:14:42;99233.30;;;19.74;100.00
57900;BME280;60605;53.716;19.940;2023-08-30T16:19:45;99235.09;;;19.68;100.00
57900;BME280;60605;53.716;19.940;2023-08-30T16:24:46;99237.92;;;19.59;100.00
57900;BME280;60605;53.716;19.940;2023-08-30T16:29:49;99240.42;;;19.50;100.00
57900;BME280;60605;53.716;19.940;2023-08-30T16:34:50;99246.39;;;19.41;100.00
57900;BME280;60605;53.716;19.940;2023-08-30T16:39:53;99251.35;;;19.31;100.00
57900;BME280;60605;53.716;19.940;2023-08-30T16:44:55;99246.48;;;19.20;100.00
57900;BME280;60605;53.716;19.940;2023-08-30T16:49:57;99248.31;;;19.09;100.00
57900;BME280;60605;53.716;19.940;2023-08-30T16:54:59;99256.13;;;19.01;100.00
57900;BME280;60605;53.716;19.940;2023-08-30T17:00:01;99259.75;;;18.92;100.00
57900;BME280;60605;53.716;19.940;2023-08-30T17:05:04;99260.58;;;18.84;100.00
57900;BME280;60605;53.716;19.940;2023-08-30T17:10:07;99248.42;;;18.79;100.00
57900;BME280;60605;53.716;19.940;2023-08-30T17:15:10;99238.88;;;18.74;100.00
57900;BME280;60605;53.716;19.940;2023-08-30T17:20:12;99244.86;;;18.68;100.00
57900;BME280;60605;53.716;19.940;2023-08-30T17:25:14;99251.96;;;18.62;100.00
57900;BME280;60605;53.716;19.940;2023-08-30T17:30:18;99250.77;;;18.57;100.00
57900;BME280;60605;53.716;19.940;2023-08-30T17:35:22;99246.61;;;18.52;100.00
57900;BME280;60605;53.716;19.940;2023-08-30T17:40:30;99248.74;;;18.48;100.00
57900;BME280;60605;53.716;19.940;2023-08-30T17:45:32;99245.70;;;18.44;100.00
57900;BME280;60605;53.716;19.940;2023-08-30T17:50:35;99240.83;;;18.41;100.00
57900;BME280;60605;53.716;19.940;2023-08-30T17:55:37;99235.92;;;18.37;100.00
57900;BME280;60605;53.716;19.940;2023-08-30T18:00:40;99226.73;;;18.35;100.00
57900;BME280;60605;53.716;19.940;2023-08-30T18:05:42;99218.31;;;18.33;100.00
57900;BME280;60605;53.716;19.940;2023-08-30T18:10:44;99218.30;;;18.31;100.00
57900;BME280;60605;53.716;19.940;2023-08-30T18:15:47;99222.70;;;18.29;100.00
57900;BME280;60605;53.716;19.940;2023-08-30T18:20:49;99228.94;;;18.27;100.00
57900;BME280;60605;53.716;19.940;2023-08-30T18:25:51;99230.21;;;18.26;100.00
57900;BME280;60605;53.716;19.940;2023-08-30T18:30:53;99223.77;;;18.24;100.00
57900;BME280;60605;53.716;19.940;2023-08-30T18:35:55;99221.66;;;18.23;100.00
57900;BME280;60605;53.716;19.940;2023-08-30T18:40:57;99221.17;;;18.21;100.00
57900;BME280;60605;53.716;19.940;2023-08-30T18:46:17;99224.28;;;18.20;100.00
57900;BME280;60605;53.716;19.940;2023-08-30T18:51:22;99223.50;;;18.18;100.00
57900;BME280;60605;53.716;19.940;2023-08-30T18:56:26;99225.43;;;18.17;100.00
57900;BME280;60605;53.716;19.940;2023-08-30T19:01:28;99227.27;;;18.17;100.00
57900;BME280;60605;53.716;19.940;2023-08-30T19:06:32;99229.61;;;18.15;100.00
57900;BME280;60605;53.716;19.940;2023-08-30T19:11:35;99232.31;;;18.13;100.00
57900;BME280;60605;53.716;19.940;2023-08-30T19:16:37;99234.77;;;18.11;100.00
57900;BME280;60605;53.716;19.940;2023-08-30T19:21:39;99236.83;;;18.10;100.00
57900;BME280;60605;53.716;19.940;2023-08-30T19:26:42;99237.48;;;18.08;100.00
57900;BME280;60605;53.716;19.940;2023-08-30T19:31:44;99242.11;;;18.06;100.00
57900;BME280;60605;53.716;19.940;2023-08-30T19:36:46;99241.02;;;18.00;100.00
57900;BME280;60605;53.716;19.940;2023-08-30T19:41:48;99242.08;;;17.91;100.00
57900;BME280;60605;53.716;19.940;2023-08-30T19:46:51;99251.48;;;17.84;100.00
57900;BME280;60605;53.716;19.940;2023-08-30T19:51:54;99253.05;;;17.77;100.00
57900;BME280;60605;53.716;19.940;2023-08-30T19:56:57;99254.34;;;17.74;100.00
57900;BME280;60605;53.716;19.940;2023-08-30T20:02:00;99261.80;;;17.71;100.00
57900;BME280;60605;53.716;19.940;2023-08-30T20:07:04;99265.44;;;17.68;100.00
57900;BME280;60605;53.716;19.940;2023-08-30T20:12:07;99263.94;;;17.63;100.00
57900;BME280;60605;53.716;19.940;2023-08-30T20:17:10;99261.73;;;17.59;100.00
57900;BME280;60605;53.716;19.940;2023-08-30T20:22:13;99262.80;;;17.55;100.00
57900;BME280;60605;53.716;19.940;2023-08-30T20:27:16;99259.99;;;17.52;100.00
57900;BME280;60605;53.716;19.940;2023-08-30T20:32:20;99255.09;;;17.50;100.00
57900;BME280;60605;53.716;19.940;2023-08-30T20:37:26;99257.40;;;17.49;100.00
57900;BME280;60605;53.716;19.940;2023-08-30T20:42:30;99255.45;;;17.48;100.00
57900;BME280;60605;53.716;19.940;2023-08-30T20:47:46;99258.00;;;17.49;100.00
57900;BME280;60605;53.716;19.940;2023-08-30T20:52:48;99255.94;;;17.49;100.00
57900;BME280;60605;53.716;19.940;2023-08-30T20:57:51;99255.90;;;17.49;100.00
57900;BME280;60605;53.716;19.940;2023-08-30T21:02:54;99256.87;;;17.49;100.00
57900;BME280;60605;53.716;19.940;2023-08-30T21:07:56;99261.73;;;17.49;100.00
57900;BME280;60605;53.716;19.940;2023-08-30T21:12:58;99260.77;;;17.49;100.00
57900;BME280;60605;53.716;19.940;2023-08-30T21:18:07;99262.84;;;17.50;100.00
57900;BME280;60605;53.716;19.940;2023-08-30T21:23:12;99263.56;;;17.50;100.00
57900;BME280;60605;53.716;19.940;2023-08-30T21:28:15;99260.77;;;17.51;100.00
57900;BME280;60605;53.716;19.940;2023-08-30T21:33:21;99256.83;;;17.52;100.00
57900;BME280;60605;53.716;19.940;2023-08-30T21:38:24;99260.00;;;17.52;100.00
57900;BME280;60605;53.716;19.940;2023-08-30T21:43:26;99261.21;;;17.51;100.00
57900;BME280;60605;53.716;19.940;2023-08-30T21:48:28;99259.40;;;17.50;100.00
57900;BME280;60605;53.716;19.940;2023-08-30T21:53:31;99254.68;;;17.50;100.00
57900;BME280;60605;53.716;19.940;2023-08-30T21:58:33;99259.31;;;17.51;100.00
57900;BME280;60605;53.716;19.940;2023-08-30T22:03:35;99259.01;;;17.52;100.00
57900;BME280;60605;53.716;19.940;2023-08-30T22:08:36;99257.88;;;17.52;100.00
57900;BME280;60605;53.716;19.940;2023-08-30T22:13:38;99262.38;;;17.51;100.00
57900;BME280;60605;53.716;19.940;2023-08-30T22:18:40;99262.34;;;17.49;100.00
57900;BME280;60605;53.716;19.940;2023-08-30T22:23:43;99273.77;;;17.49;100.00
57900;BME280;60605;53.716;19.940;2023-08-30T22:28:46;99277.77;;;17.49;100.00
57900;BME280;60605;53.716;19.940;2023-08-30T22:33:48;99275.03;;;17.48;100.00
57900;BME280;60605;53.716;19.940;2023-08-30T22:38:51;99275.38;;;17.47;100.00
57900;BME280;60605;53.716;19.940;2023-08-30T22:43:53;99278.63;;;17.45;100.00
57900;BME280;60605;53.716;19.940;2023-08-30T22:48:55;99280.94;;;17.44;100.00
57900;BME280;60605;53.716;19.940;2023-08-30T22:53:59;99286.58;;;17.44;100.00
57900;BME280;60605;53.716;19.940;2023-08-30T22:59:04;99286.27;;;17.44;100.00
57900;BME280;60605;53.716;19.940;2023-08-30T23:04:06;99290.23;;;17.44;100.00
57900;BME280;60605;53.716;19.940;2023-08-30T23:09:09;99293.27;;;17.44;100.00
57900;BME280;60605;53.716;19.940;2023-08-30T23:14:11;99289.02;;;17.44;100.00
57900;BME280;60605;53.716;19.940;2023-08-30T23:19:13;99291.73;;;17.43;100.00
57900;BME280;60605;53.716;19.940;2023-08-30T23:24:15;99289.92;;;17.42;100.00
57900;BME280;60605;53.716;19.940;2023-08-30T23:29:17;99284.52;;;17.41;100.00
57900;BME280;60605;53.716;19.940;2023-08-30T23:34:18;99278.03;;;17.39;100.00
57900;BME280;60605;53.716;19.940;2023-08-30T23:39:20;99277.04;;;17.38;100.00
57900;BME280;60605;53.716;19.940;2023-08-30T23:44:22;99273.21;;;17.35;100.00
57900;BME280;60605;53.716;19.940;2023-08-30T23:49:24;99270.61;;;17.33;100.00
57900;BME280;60605;53.716;19.940;2023-08-30T23:54:26;99271.87;;;17.32;100.00
57900;BME280;60605;53.716;19.940;2023-08-30T23:59:28;99276.75;;;17.31;100.00
